Tiempo atmosférico en la estación meteorológica de Málaga, Centro Meteorológico, Málaga (60 m.)



Fecha
DESCASC
Temp. máxima en grados centígrados (hora)
DESCASC
Temp. mínima en grados centígrados (hora)
DESCASC
Temp. media en grados centígrados
DESCASC
Racha de viento máxima en m/sg (hora)
DESCASC
Velocidad máxima media en intervalos de 10 minutos(hora)
DESCASC
Precipitaciones diarias en mm
DESCASC
Precipitaciones de 00:00 a 06:00 en mm
DESCASC
Precipitaciones de 06:00 a 12:00 en mm
DESCASC
Precipitaciones de 12:00 a 18:00 en mm
DESCASC
Precipitaciones de 18:00 a 24:00 en mm
DESCASC
02-08-2020 43.7 (18:00) 25.6 (04:50) 34.7 10.56 (11:50) 5.28 (10:40) 0 0 0 0 0
01-08-2020 39.1 (12:20) 25.7 (05:30) 32.4 7.22 (18:40) 4.44 (15:40) 0 0 0 0 0
31-07-2020 31.6 (14:20) 24.4 (07:10) 28 6.39 (18:20) 3.61 (18:20) 0 0 0 0 0
30-07-2020 31.5 (13:20) 25.7 (00:00) 28.6 7.22 (15:50) 4.17 (15:50) 0 0 0 0 0
29-07-2020 30.5 (15:20) 23.4 (00:00) 26.9 7.22 (20:50) 4.72 (17:40) 0 0 0 0 0
28-07-2020 31 (18:30) 23.8 (00:00) 27.4 7.5 (15:00) 5 (15:50) 0 0 0 0 0
27-07-2020 33.1 (14:10) 23.7 (00:00) 28.4 6.67 (16:50) 4.17 (18:50) 0 0 0 0 0
26-07-2020 33.3 (11:40) 22.5 (00:00) 27.9 6.67 (14:40) 3.89 (14:50) 0 0 0 0 0
25-07-2020 32.9 (15:50) 23 (00:00) 28 6.39 (13:10) 4.17 (14:10) 0 0 0 0 0
24-07-2020 31.7 (14:00) 23 (00:00) 27.4 6.67 (14:20) 4.72 (16:40) 0 0 0 0 0
23-07-2020 30.2 (17:40) 22.8 (00:00) 26.5 7.5 (14:30) 4.72 (15:10) 0 0 0 0 0
22-07-2020 30.8 (15:40) 22.3 (00:00) 26.5 6.67 (15:50) 4.17 (15:30) 0 0 0 0 0
21-07-2020 29.9 (11:50) 24.8 (00:00) 27.3 14.17 (02:40) 7.78 (02:40) 0 0 0 0 0
20-07-2020 32.8 (12:20) 22.5 (00:00) 27.6 7.78 (13:30) 5.28 (14:20) 0 0 0 0 0
19-07-2020 30.6 (14:40) 22.1 (00:00) 26.4 7.22 (17:30) 4.72 (17:30) 0 0 0 0 0
18-07-2020 30.1 (13:30) 21.9 (00:00) 26 8.33 (14:10) 4.72 (14:40) 0 0 0 0 0
17-07-2020 31.1 (12:50) 20.7 (00:00) 25.9 7.22 (13:40) 4.17 (13:40) 0 0 0 0 0
16-07-2020 31.3 (14:50) 22.5 (00:00) 26.9 8.61 (13:20) 4.17 (13:30) 0 0 0 0 0
15-07-2020 29.7 (14:50) 21.9 (00:00) 25.8 7.78 (12:40) 4.44 (12:40) 0 0 0 0 0
14-07-2020 31.1 (11:20) 22.6 (00:00) 26.9 8.06 (18:00) 5.56 (15:20) 0 0 0 0 0
13-07-2020 32.7 (12:50) 22.4 (00:00) 27.6 8.33 (15:20) 5 (15:40) 0 0 0 0 0
12-07-2020 29.6 (17:00) 23.2 (06:50) 26.4 10 (12:20) 5.28 (12:30) 0 0 0 0 0
11-07-2020 28.8 (15:10) 21.2 (06:30) 25 8.61 (16:20) 5.28 (16:40) 0 0 0 0 0
10-07-2020 29.8 (14:40) 20.6 (00:00) 25.2 6.67 (14:50) 4.17 (13:10) 0 0 0 0 0
09-07-2020 30.2 (13:50) 21.7 (05:30) 26 7.22 (14:20) 4.17 (18:30) 0 0 0 0 0
08-07-2020 32.1 (16:30) 22.7 (07:40) 27.4 12.78 (02:50) 4.72 (12:50) 0 0 0 0 0

Gráficas

Temp. máximas Temp. mínimas Temp. medias Precipitaciones Rachas de viento máximas Velocidades máximas media en intervalos de 10 minutos

Datos horarios

Fecha y hora oficial Temperatura (ºC) Velocidad del viento (km/h) Dirección del viento Racha (km/h) Dirección de racha Precipitación (mm) Presión (hPa) Tendencia (hPa) Humedad (%)
2020-08-06 23:00:00 27.2 9 Sudeste 18 Sudeste 0 1010.2 2.6 58
2020-08-06 22:00:00 27.3 10 Sur 18 Sudeste 0 1009.5 2.2 56
2020-08-06 21:00:00 28.1 11 Sudeste 21 Sudeste 0 1008.2 1 50
2020-08-06 20:00:00 29.8 11 Sur 23 Sudeste 0 1007.6 -- 47
2020-08-06 19:00:00 30.4 14 Sudeste 27 Sudeste 0 1007.3 -- 45
2020-08-06 18:00:00 31 14 Sudeste 26 Sudeste 0 1007.2 -- 44
2020-08-06 17:00:00 31.8 16 Sudeste 31 Sudeste 0 1007.4 -- 43
2020-08-06 16:00:00 32.1 12 Sudeste 23 Este 0 1007.9 -- 44
2020-08-06 15:00:00 31.9 12 Sudeste 26 Sur 0 1008.3 -- 44
2020-08-06 14:00:00 31.2 13 Sudeste 26 Sudeste 0 1008.4 -- 46
2020-08-06 13:00:00 32 11 Sudeste 23 Sudeste 0 1008.3 -- 46
2020-08-06 12:00:00 31.6 12 Sudeste 22 Sudeste 0 1008.2 -- 49
2020-08-06 11:00:00 30.6 4 Sudoeste 12 Sur 0 1007.9 -- 53
2020-08-06 10:00:00 28.3 6 Sudoeste 10 Oeste 0 1007.6 -- 62
2020-08-06 09:00:00 24.6 8 Oeste 11 Oeste 0 1007.5 -- 71
2020-08-06 08:00:00 23 4 Oeste 8 Oeste 0 1007.4 -- 76
2020-08-06 07:00:00 24.3 2 Noroeste 6 Noroeste 0 1006.8 -- 76
2020-08-06 06:00:00 24.2 2 Noroeste 10 Noroeste 0 1006.5 -- 74
2020-08-06 05:00:00 24.5 4 Oeste 6 Noroeste 0 1006.6 -- 74
2020-08-06 04:00:00 24.8 3 Noroeste 5 Noroeste 0 1006.5 -- 74
2020-08-06 03:00:00 25.6 4 Noroeste 6 Noroeste 0 1006.7 -- 73
2020-08-06 02:00:00 25.6 0 Calma 7 Sudeste 0 1006.9 -- 73
2020-08-06 01:00:00 25.7 0 Calma 4 Sur 0 1006.8 -- 73
2020-08-06 00:00:00 26 2 Sur 6 Sur 0 1006.4 -- 71
2020-08-05 23:00:00 26.4 4 Sur 8 Sudeste 0 1006.2 -- 68
2020-08-05 22:00:00 27.1 5 Sur 13 Sudeste 0 1005.4 -- 64
2020-08-05 21:00:00 28.4 6 Sudeste 13 Sur 0 1004.8 -- 55
2020-08-05 20:00:00 29.8 9 Sudeste 19 Sudeste 0 1004.5 -- 50
2020-08-05 19:00:00 30.3 11 Sudeste 22 Sudeste 0 1004.7 -- 48
2020-08-05 18:00:00 31.3 12 Sudeste 23 Sudeste 0 1004.7 -- 47
2020-08-05 17:00:00 30.9 15 Sudeste 24 Sudeste 0 1004.9 -- 45
2020-08-05 16:00:00 32 14 Sudeste 25 Sudeste 0 1005.1 -- 43
2020-08-05 15:00:00 31.4 16 Sudeste 25 Sudeste 0 1005.7 -- 45
2020-08-05 14:00:00 31.4 16 Sudeste 26 Sudeste 0 1006.2 -- 47
2020-08-05 13:00:00 31.7 13 Sudeste 21 Sudeste 0 1006.4 -- 50
2020-08-05 12:00:00 30.7 12 Sudeste 21 Sudeste 0 1006.6 -- 50
2020-08-05 11:00:00 29.9 11 Sudeste 18 Sur 0 1006.4 -- 55
2020-08-05 10:00:00 27.9 4 Oeste 10 Sudoeste 0 1006.6 -- 77
2020-08-05 09:00:00 25.7 4 Oeste 8 Oeste 0 1006.3 -- 91
2020-08-05 08:00:00 25.3 4 Sudoeste 8 Sur 0 1006.2 -- 92
2020-08-05 07:00:00 25.6 5 Sur 9 Sudeste 0 1006.1 -- 91
2020-08-05 06:00:00 26 4 Sudeste 8 Sur 0 1005.9 -- 91
2020-08-05 05:00:00 25.6 3 Sudoeste 6 Sudoeste 0 1006.2 -- 91
2020-08-05 04:00:00 25.6 0 Calma 5 Sudoeste 0 1006.2 -- 91
2020-08-05 03:00:00 25.7 5 Sudoeste 6 Sudoeste 0 1006.5 -- 91
2020-08-05 02:00:00 25.8 3 Sudeste 13 Sudeste 0 1006.8 -- 91
2020-08-05 01:00:00 26.1 7 Sudeste 13 Sudeste 0 1006.8 -- 91
2020-08-05 00:00:00 26.1 8 Sudeste 13 Sudeste 0 1006.6 -- 88
2020-08-04 23:00:00 26.7 9 Sudeste 13 Sudeste 0 1006.2 -- 80
2020-08-04 22:00:00 27.3 7 Sudeste 12 Sudeste 0 1005.7 -- 70
2020-08-04 21:00:00 28.2 8 Sudeste 15 Sudeste 0 1005.3 -- 64
2020-08-04 20:00:00 29.5 9 Sudeste 17 Sudeste 0 1005.1 -- 61
2020-08-04 19:00:00 29.9 9 Sudeste 18 Sudeste 0 1005.5 -- 65
2020-08-04 18:00:00 29.9 10 Sudeste 21 Sudeste 0 1005.7 -- 65
2020-08-04 17:00:00 30.8 13 Sudeste 23 Sudeste 0 1006.2 -- 64
2020-08-04 16:00:00 30.4 14 Sudeste 27 Sudeste 0 1006.7 -- 64
2020-08-04 15:00:00 30.2 11 Sudeste 26 Este 0 1007.2 -- 68
2020-08-04 14:00:00 29.1 13 Sudeste 27 Sudeste 0 1007.6 -- 74
2020-08-04 13:00:00 28.9 16 Sudeste 26 Sudeste 0 1007.6 -- 76
2020-08-04 12:00:00 28.6 15 Sudeste 28 Sudeste 0 1007.6 -- 77
2020-08-04 11:00:00 28.2 11 Sudeste 25 Sudeste 0 1007.4 -- 76
2020-08-04 10:00:00 27.3 3 Sudeste 8 Este 0 1007.1 -- 79
2020-08-04 09:00:00 25.9 0 Calma 8 Oeste 0 1006.6 -- 85
2020-08-04 08:00:00 25.5 4 Norte 6 Noroeste 0 1006.2 -- 89
2020-08-04 07:00:00 25.5 0 Calma 9 Sudoeste 0 1006.1 -- 91
2020-08-04 06:00:00 25.8 3 Sudeste 10 Este 0 1005.8 -- 91
2020-08-04 05:00:00 25.6 3 Sudeste 11 Sudeste 0 1005.7 -- 91
2020-08-04 04:00:00 25.8 7 Sudeste 17 Sudeste 0 1005.9 -- 89
2020-08-04 03:00:00 26.1 10 Sudeste 21 Sudeste 0 1005.9 -- 88
2020-08-04 02:00:00 26.9 6 Sudeste 14 Este 0 1005.9 -- 76
2020-08-04 01:00:00 27.8 3 Sudeste 13 Este 0 1005.7 -- 62
2020-08-04 00:00:00 28.1 8 Este 17 Este 0 1005.4 -- 64
2020-08-03 23:00:00 28.1 6 Este 16 Este 0 1004.8 -- 62
2020-08-03 22:00:00 28.5 7 Sudeste 16 Sudeste 0 1003.8 -- 49
2020-08-03 21:00:00 29.4 8 Este 17 Este 0 1003.2 -- 46
2020-08-03 20:00:00 30.5 9 Este 19 Este 0 1003 -- 44
2020-08-03 19:00:00 31.4 12 Sudeste 22 Este 0 1003 -- 44
2020-08-03 18:00:00 33.2 11 Este 27 Oeste 0 1003.3 -- 38
2020-08-03 17:00:00 37.3 13 Noroeste 33 Oeste 0 1003 -- 26
2020-08-03 16:00:00 38.2 10 Noroeste 34 Oeste 0 1003.1 -- 25
2020-08-03 15:00:00 36.6 17 Oeste 35 Oeste 0 1003.5 -- 27
2020-08-03 14:00:00 35.7 19 Oeste 33 Oeste 0 1004.5 -- 27
2020-08-03 13:00:00 35.5 18 Oeste 33 Oeste 0 1004.6 -- 27
2020-08-03 12:00:00 33.6 15 Oeste 27 Oeste 0 1004.9 -- 29
2020-08-03 11:00:00 31.9 12 Noroeste 24 Oeste 0 1005.4 -- 31
2020-08-03 10:00:00 30.8 10 Oeste 18 Oeste 0 1005.7 -- 34
2020-08-03 09:00:00 28.1 3 Noroeste 16 Noroeste 0 1005.8 -- 35
2020-08-03 08:00:00 27.5 5 Noroeste 22 Noroeste 0 1005.8 -- 35
2020-08-03 07:00:00 28.3 9 Noroeste 22 Oeste 0 1005.7 -- 32
2020-08-03 06:00:00 28.7 8 Noroeste 24 Noroeste 0 1005.2 -- 29
2020-08-03 05:00:00 28.4 4 Oeste 12 Noroeste 0 1005.6 -- 26
2020-08-03 04:00:00 29.6 6 Noroeste 16 Norte 0 1005.7 -- 24
2020-08-03 03:00:00 31 7 Norte 21 Noroeste 0 1005.5 -- 22
2020-08-03 02:00:00 32.2 10 Noroeste 25 Noroeste 0 1005.8 -- 21
2020-08-03 01:00:00 32.5 7 Noroeste 22 Noroeste 0 1006.3 -- 21
2020-08-03 00:00:00 33.8 8 Noroeste 17 Noroeste 0 1005.8 -- 21
2020-08-02 23:00:00 34.8 0 Calma 18 Noroeste 0 1005.2 -- 21
2020-08-02 22:00:00 37.2 8 Noroeste 21 Noroeste 0 1004.6 -- 18
2020-08-02 21:00:00 39.3 8 Noroeste 21 Noroeste 0 1004.5 -- 15
2020-08-02 20:00:00 41.2 13 Noroeste 30 Noroeste 0 1004.1 -- 15
2020-08-02 19:00:00 42.3 10 Noroeste 24 Norte 0 1004 -- 17
2020-08-02 18:00:00 42.3 9 Este 22 Noroeste 0 1004.7 -- 19
2020-08-02 17:00:00 43.5 8 Norte 28 Oeste 0 1005 -- 15
2020-08-02 16:00:00 43 9 Norte 25 Norte 0 1005.8 -- 16
2020-08-02 15:00:00 42.1 7 Norte 28 Oeste 0 1006.3 -- 18
2020-08-02 14:00:00 41.2 10 Noroeste 28 Noroeste 0 1006.9 -- 18
2020-08-02 13:00:00 39.7 9 Noroeste 26 Norte 0 1007.4 -- 20
2020-08-02 12:00:00 38.3 18 Oeste 38 Oeste 0 1007.4 -- 21
2020-08-02 11:00:00 36.5 14 Oeste 30 Oeste 0 1007.2 -- 26
2020-08-02 10:00:00 33.1 12 Oeste 23 Noroeste 0 1007.1 -- 29
2020-08-02 09:00:00 30.8 9 Noroeste 22 Oeste 0 1007 -- 29
2020-08-02 08:00:00 29.7 8 Noroeste 15 Noroeste 0 1006.8 -- 30
2020-08-02 07:00:00 28.5 7 Oeste 14 Oeste 0 1006.9 -- 33
2020-08-02 06:00:00 28.1 8 Oeste 15 Norte 0 1006.8 -- 41
2020-08-02 05:00:00 26.3 7 Noroeste 12 Oeste 0 1006.9 -- 71
2020-08-02 04:00:00 26.1 4 Sudeste 18 Sudeste 0 1007.3 -- 88
2020-08-02 03:00:00 26.5 5 Noroeste 16 Este 0 1007.3 -- 86
2020-08-02 02:00:00 27.1 8 Este 20 Sudeste 0 1008.2 -- 82
2020-08-02 01:00:00 27.5 3 Oeste 5 Oeste 0 1007.8 -- 71
2020-08-02 00:00:00 28.3 0 Calma 8 Sudeste 0 1007.9 -- 70
2020-08-01 23:00:00 29.3 5 Sudeste 8 Sudeste 0 1007.7 -- 59
2020-08-01 22:00:00 30.6 5 Sudeste 13 Este 0 1007.1 -- 49
2020-08-01 21:00:00 32.2 12 Este 21 Este 0 1006.6 -- 41
2020-08-01 20:00:00 34.6 15 Este 24 Este 0 1006.4 -- 32
2020-08-01 19:00:00 35.7 13 Este 26 Este 0 1006.4 -- 35
2020-08-01 18:00:00 36.7 13 Este 22 Este 0 1006.8 -- 35
2020-08-01 17:00:00 36.8 16 Este 23 Este 0 1007.1 -- 38
2020-08-01 16:00:00 34.4 13 Este 22 Este 0 1007.5 -- 47
2020-08-01 15:00:00 33.4 14 Este 23 Este 0 1008.2 -- 52
2020-08-01 14:00:00 34.1 13 Este 21 Este 0 1008.7 -- 50
2020-08-01 13:00:00 34 11 Sudeste 19 Sudeste 0 1008.9 -- 47
2020-08-01 12:00:00 37.3 8 Oeste 18 Oeste 0 1008.9 -- 34
2020-08-01 11:00:00 34.3 12 Oeste 23 Oeste 0 1009 -- 43
2020-08-01 10:00:00 31.4 12 Oeste 22 Oeste 0 1008.9 -- 53
2020-08-01 09:00:00 28.6 12 Noroeste 21 Noroeste 0 1009.1 -- 59
2020-08-01 08:00:00 27.5 6 Noroeste 15 Noroeste 0 1008.7 -- 65
2020-08-01 07:00:00 26.7 8 Oeste 21 Oeste 0 1008.6 -- 71
2020-08-01 06:00:00 26.4 8 Oeste 14 Noroeste 0 1008.5 -- 76
2020-08-01 05:00:00 26 0 Calma 10 Norte 0 1008.5 -- 85
2020-08-01 04:00:00 26.4 7 Sudoeste 13 Sudoeste 0 1009.6 -- 85
2020-08-01 03:00:00 26.7 8 Nordeste 18 Este 0 1009.4 -- 83
2020-08-01 02:00:00 27.2 8 Sudeste 21 Sur 0 1009.7 -- 80
2020-08-01 01:00:00 27.2 4 Sudoeste 18 Sudoeste 0 1010.3 -- 77
2020-08-01 00:00:00 27.1 5 Oeste 8 Oeste 0 1009.3 -- 77
2020-07-31 23:00:00 27.2 3 Sudeste 8 Sudeste 0 1009.3 -- 74
2020-07-31 22:00:00 27.6 7 Este 13 Sudeste 0 1008.9 -- 70
2020-07-31 21:00:00 28.9 9 Sudeste 17 Este 0 1008.3 -- 62
2020-07-31 20:00:00 29.6 12 Este 18 Este 0 1008 -- 61
2020-07-31 19:00:00 30 11 Sudeste 23 Sudeste 0 1008.3 -- 62
2020-07-31 18:00:00 30.4 10 Sudeste 16 Sudeste 0 1008.6 -- 62
2020-07-31 17:00:00 30 8 Sudeste 19 Sudeste 0 1009 -- 62
2020-07-31 16:00:00 30.6 11 Sudeste 20 Sudeste 0 1009.4 -- 61
2020-07-31 15:00:00 31.3 10 Sudeste 21 Sudeste 0 1009.5 -- 61
2020-07-31 14:00:00 30.4 12 Sudeste 21 Sudeste 0 1009.8 -- 65
2020-07-31 13:00:00 29.6 11 Sudeste 19 Sudeste 0 1010 -- 68
2020-07-31 12:00:00 29.5 12 Sudeste 19 Sur 0 1010 -- 71
2020-07-31 11:00:00 29.8 11 Sudeste 18 Sudeste 0 1009.6 -- 67
2020-07-31 10:00:00 28.1 0 Calma 8 Oeste 0 1009.1 -- 70
2020-07-31 09:00:00 25.6 6 Oeste 13 Oeste 0 1009 -- 91
2020-07-31 08:00:00 24.6 7 Oeste 13 Oeste 0 1008.6 -- 92
2020-07-31 07:00:00 24.5 7 Oeste 13 Oeste 0 1008.4 -- 94
2020-07-31 06:00:00 24.7 7 Oeste 15 Oeste 0 1008.4 -- 92
2020-07-31 05:00:00 25 5 Oeste 10 Norte 0 1008.4 -- 91
2020-07-31 04:00:00 25.4 4 Noroeste 9 Noroeste 0 1008.6 -- 91
2020-07-31 03:00:00 25.6 3 Noroeste 4 Noroeste 0 1008.9 -- 91
2020-07-31 02:00:00 25.7 0 Calma 3 Sudoeste 0 1009.1 -- 91
2020-07-31 01:00:00 25.9 2 Sudoeste 7 Sur 0 1009.2 -- 89
2020-07-31 00:00:00 26 4 Sur 11 Este 0 1009 -- 89
2020-07-30 23:00:00 26.2 8 Sudeste 16 Sudeste 0 1008.9 -- 88
2020-07-30 22:00:00 26.7 8 Sudeste 16 Sudeste 0 1008.1 -- 85
2020-07-30 21:00:00 27.9 9 Sudeste 15 Sudeste 0 1007.3 -- 77
2020-07-30 20:00:00 29.2 10 Sur 18 Sudeste 0 1006.9 -- 70
2020-07-30 19:00:00 29.9 11 Sudeste 18 Sudeste 0 1006.9 -- 67
2020-07-30 18:00:00 30.4 12 Sudeste 21 Sudeste 0 1007.2 -- 65
2020-07-30 17:00:00 30.9 13 Sudeste 26 Sudeste 0 1007.5 -- 65
2020-07-30 16:00:00 30.5 15 Sudeste 26 Sudeste 0 1007.8 -- 67
2020-07-30 15:00:00 31.3 13 Sudeste 23 Sudeste 0 1007.9 -- 64
2020-07-30 14:00:00 30.7 12 Sudeste 22 Sudeste 0 1008.1 -- 62
2020-07-30 13:00:00 30.9 9 Sur 18 Sudeste 0 1008.5 -- 62
2020-07-30 12:00:00 29.6 13 Sudeste 21 Sudeste 0 1008.8 -- 70
2020-07-30 11:00:00 28.5 14 Sur 23 Sur 0 1008.8 -- 74
2020-07-30 10:00:00 27.5 10 Sudeste 17 Sur 0 1008.1 -- 82
2020-07-30 09:00:00 26.3 6 Sudeste 13 Sudeste 0 1007.5 -- 90
2020-07-30 08:00:00 25.9 9 Sudeste 14 Sudeste 0 1007.2 -- 91
2020-07-30 07:00:00 26.1 6 Sudeste 14 Sudeste 0 1007 -- 91
2020-07-30 06:00:00 25.9 5 Sudeste 9 Sudeste 0 1006.4 -- 91
2020-07-30 05:00:00 25.8 3 Sur 6 Sur 0 1006.2 -- 91
2020-07-30 04:00:00 26 0 Calma 5 Oeste 0 1006.3 -- 91
2020-07-30 03:00:00 26.2 3 Sudoeste 9 Sudoeste 0 1007.1 -- 91
2020-07-30 02:00:00 26.5 4 Sudeste 16 Este 0 1007.5 -- 91
2020-07-30 01:00:00 26.6 10 Sudeste 20 Sudeste 0 1008.3 -- 91
2020-07-30 00:00:00 26.5 11 Sudeste 24 Sudeste 0 1007.7 -- 91
2020-07-29 23:00:00 26.6 15 Sudeste 23 Sudeste 0 1007.1 -- 89
2020-07-29 22:00:00 26.6 12 Este 23 Sudeste 0 1007 -- 89
2020-07-29 21:00:00 26.8 16 Sudeste 26 Sudeste 0 1007 -- 88
2020-07-29 20:00:00 27.9 14 Sudeste 21 Sudeste 0 1006 -- 80
2020-07-29 19:00:00 29.3 14 Sudeste 21 Sudeste 0 1005.6 -- 71
2020-07-29 18:00:00 29.1 14 Sudeste 24 Sudeste 0 1006.3 -- 72
2020-07-29 17:00:00 29.9 15 Sudeste 23 Sudeste 0 1006.8 -- 67
2020-07-29 16:00:00 30.4 14 Sudeste 24 Sudeste 0 1007.1 -- 65
2020-07-29 15:00:00 29.8 14 Sudeste 24 Sudeste 0 1007.6 -- 67
2020-07-29 14:00:00 29.5 13 Sudeste 22 Este 0 1008 -- 68
2020-07-29 13:00:00 30 12 Sudeste 21 Sudeste 0 1008.2 -- 62
2020-07-29 12:00:00 28.7 13 Sudeste 21 Este 0 1008.4 -- 68
2020-07-29 11:00:00 28.6 10 Sudeste 19 Sudeste 0 1007.9 -- 67
2020-07-29 10:00:00 28 6 Este 13 Sudeste 0 1007.7 -- 68
2020-07-29 09:00:00 25.9 4 Sudeste 7 Sudeste 0 1007.1 -- 74
2020-07-29 08:00:00 23.6 0 Calma -- -- 0 1006.7 -- 85
2020-07-29 07:00:00 23.7 0 Calma -- -- 0 1006.3 -- 86
2020-07-29 06:00:00 23.6 0 Calma 4 Sudoeste 0 1006.1 -- 88
2020-07-29 05:00:00 23.9 4 Oeste 6 Oeste 0 1006 -- 83
2020-07-29 04:00:00 24.7 3 Sudeste 5 Sudeste 0 1006 -- 84
2020-07-29 03:00:00 24.8 0 Calma 6 Noroeste 0 1006.2 -- 76
2020-07-29 02:00:00 25.3 3 Oeste 6 Noroeste 0 1006.6 -- 83
2020-07-29 01:00:00 25.7 0 Calma 8 Oeste 0 1006.8 -- 82
2020-07-29 00:00:00 26.1 6 Oeste 9 Oeste 0 1006.9 -- 79
2020-07-28 23:00:00 26.7 5 Este 12 Este 0 1006.6 -- 77
2020-07-28 22:00:00 26.5 7 Este 19 Este 0 1005.9 -- 77
2020-07-28 21:00:00 27.3 12 Este 21 Este 0 1005.9 -- 73
2020-07-28 20:00:00 28.7 10 Este 20 Sudeste 0 1005.9 -- 64
2020-07-28 19:00:00 30.1 13 Sudeste 22 Sudeste 0 1005.9 -- 55
2020-07-28 18:00:00 30.3 15 Sudeste 24 Sudeste 0 1006.3 -- 53
2020-07-28 17:00:00 30.1 15 Sudeste 26 Este 0 1006.6 -- 58
2020-07-28 16:00:00 29.2 17 Sudeste 26 Este 0 1007 -- 65
2020-07-28 15:00:00 29.6 17 Sudeste 27 Sudeste 0 1007.5 -- 65
2020-07-28 14:00:00 29.5 18 Sudeste 24 Sudeste 0 1007.5 -- 64
2020-07-28 13:00:00 29.4 13 Sudeste 23 Este 0 1007.7 -- 65
2020-07-28 12:00:00 29.6 12 Sudeste 18 Sudeste 0 1007.6 -- 64
2020-07-28 11:00:00 28.9 10 Sudeste 15 Sudeste 0 1007.5 -- 65
2020-07-28 10:00:00 28.6 3 Este 8 Sudeste 0 1007.5 -- 56
2020-07-28 09:00:00 25.2 4 Sudoeste 10 Oeste 0 1007.5 -- 71
2020-07-28 08:00:00 24.6 3 Noroeste 15 Noroeste 0 1007.1 -- 73
2020-07-28 07:00:00 23.9 6 Noroeste 12 Noroeste 0 1007.1 -- 82
2020-07-28 06:00:00 24.1 2 Noroeste 9 Noroeste 0 1007.3 -- 82
2020-07-28 05:00:00 24.7 4 Oeste 15 Noroeste 0 1007.6 -- 82
2020-07-28 04:00:00 25.4 10 Noroeste 16 Noroeste 0 1007.4 -- 80
2020-07-28 03:00:00 25.4 5 Noroeste 12 Noroeste 0 1008.2 -- 79
2020-07-28 02:00:00 25.7 6 Noroeste 11 Noroeste 0 1009 -- 79
2020-07-28 01:00:00 26 3 Nordeste 10 Este 0 1009.6 -- 79
2020-07-28 00:00:00 26.2 6 Este 10 Este 0 1010.1 -- 77
2020-07-27 23:00:00 26.4 8 Sudeste 16 Sudeste 0 1009.7 -- 77
2020-07-27 22:00:00 26.6 9 Sudeste 19 Sudeste 0 1008.9 -- 76
2020-07-27 21:00:00 27.6 11 Sudeste 18 Sudeste 0 1008.3 -- 70
2020-07-27 20:00:00 29.3 12 Sudeste 22 Sudeste 0 1007.8 -- 64
2020-07-27 19:00:00 30.2 14 Sudeste 23 Sudeste 0 1008 -- 59
2020-07-27 18:00:00 31.4 12 Sudeste 21 Sudeste 0 1008.1 -- 55
2020-07-27 17:00:00 31.6 14 Sudeste 24 Sudeste 0 1008.3 -- 52
2020-07-27 16:00:00 32.3 12 Sudeste 22 Sur 0 1008.6 -- 49
2020-07-27 15:00:00 32.7 12 Sudeste 22 Sudeste 0 1009.1 -- 47
2020-07-27 14:00:00 32.6 12 Sur 23 Sur 0 1009.6 -- 48
2020-07-27 13:00:00 32.6 13 Sur 23 Sudeste 0 1009.7 -- 49
2020-07-27 12:00:00 31.4 8 Sur 16 Este 0 1009.4 -- 53
2020-07-27 09:00:00 26.7 6 Sudoeste 15 Oeste 0 1008.5 0.7 70
2020-07-27 08:00:00 24 4 Este 13 Nordeste 0 1008.9 0.9 85
2020-07-27 07:00:00 23.9 0 Calma 11 Sudoeste 0 1008.4 1 86
2020-07-27 06:00:00 25.6 2 Sudoeste 12 Este 0 1007.8 -0.5 76
2020-07-27 05:00:00 24.7 6 Norte 19 Oeste 0 1008 -0.7 88
2020-07-27 04:00:00 25 8 Oeste 17 Oeste 0 1007.4 -1.4 85
2020-07-27 03:00:00 25.5 7 Noroeste 13 Noroeste 0 1008.3 -0.8 85
2020-07-27 02:00:00 25.5 5 Oeste 10 Noroeste 0 1008.7 0.4 85
2020-07-27 01:00:00 25.6 4 Oeste 8 Nordeste 0 1008.8 1.9 89
2020-07-27 00:00:00 25.5 3 Sudeste 14 Sudeste 0 1009.1 2.9 91
2020-07-26 23:00:00 25.8 7 Sudeste 14 Sudeste 0 1008.3 2.4 89
2020-07-26 22:00:00 26.1 11 Sudeste 15 Sudeste 0 1006.9 0.6 88
2020-07-26 21:00:00 27.3 9 Sudeste 15 Sudeste 0 1006.2 -0.4 71
2020-07-26 20:00:00 28.8 10 Sudeste 16 Sudeste 0 1005.9 -0.9 62
2020-07-26 19:00:00 30 10 Sudeste 19 Sudeste 0 1006.3 -0.7 55
2020-07-26 18:00:00 29.8 10 Sudeste 21 Este 0 1006.6 -0.6 64
2020-07-26 17:00:00 30.2 12 Sudeste 22 Este 0 1006.8 -0.6 65
2020-07-26 16:00:00 30.7 12 Sudeste 23 Este 0 1007 -0.6 65
2020-07-26 15:00:00 30.7 12 Sudeste 24 Sudeste 0 1007.2 -0.3 59
2020-07-26 14:00:00 30.7 13 Sudeste 21 Sudeste 0 1007.4 0.7 58
2020-07-26 13:00:00 30.9 11 Sudeste 21 Sudeste 0 1007.6 0.6 55
2020-07-26 12:00:00 32.2 10 Sudeste 17 Este 0 1007.5 0.7 43
2020-07-26 11:00:00 31.6 4 Sudoeste 17 Oeste 0 1006.7 -0.1 37
2020-07-26 10:00:00 28.1 13 Oeste 17 Oeste 0 1007 -- 42
2020-07-26 09:00:00 25.5 11 Oeste 15 Oeste 0 1006.8 -- 49
2020-07-26 08:00:00 23.6 6 Noroeste 15 Noroeste 0 1006.8 -- 53
2020-07-26 07:00:00 22.6 3 Noroeste 10 Noroeste 0 1006.6 -- 58
2020-07-26 06:00:00 23.9 5 Noroeste 11 Noroeste 0 1006.3 -- 55
2020-07-26 05:00:00 23.5 6 Oeste 11 Oeste 0 1006.5 -- 59
2020-07-26 04:00:00 23.5 5 Oeste 8 Noroeste 0 1006.6 -- 61
2020-07-26 03:00:00 24.2 3 Oeste 6 Oeste 0 1007 -- 62
2020-07-26 02:00:00 25.4 0 Calma 8 Nordeste 0 1007.3 -- 61
2020-07-26 01:00:00 25.7 6 Nordeste 11 Sudeste 0 1007.2 -- 62
2020-07-26 00:00:00 25.7 5 Este 10 Este 0 1007 -- 71
2020-07-25 23:00:00 26.2 5 Sudeste 10 Sudeste 0 1006.5 -- 70
2020-07-25 22:00:00 27.1 6 Sudeste 13 Sudeste 0 1005.8 -- 61
2020-07-25 21:00:00 28.6 6 Sudeste 14 Sudeste 0 1005.7 -- 44
2020-07-25 20:00:00 29.8 10 Sudeste 17 Sudeste 0 1005.5 -- 39
2020-07-25 19:00:00 30.7 11 Sudeste 18 Sudeste 0 1005.7 -- 40
2020-07-25 18:00:00 32.1 12 Sudeste 19 Sudeste 0 1006 -- 33
2020-07-25 17:00:00 32 11 Sudeste 22 Este 0 1006.4 -- 35
2020-07-25 16:00:00 32.4 12 Sudeste 20 Sudeste 0 1007 -- 36
2020-07-25 15:00:00 32.3 12 Sudeste 23 Sudeste 0 1007.5 -- 35
2020-07-25 14:00:00 30.8 15 Sudeste 23 Sudeste 0 1008.1 -- 49
2020-07-25 13:00:00 30.6 13 Sudeste 22 Sudeste 0 1008.2 -- 59
2020-07-25 12:00:00 29.3 13 Sudeste 20 Sudeste 0 1008.1 -- 50
2020-07-25 11:00:00 28.7 10 Sudeste 16 Sudeste 0 1007.7 -- 70
2020-07-25 10:00:00 27 7 Este 15 Este 0 1007.7 -- 80
2020-07-25 09:00:00 25.3 6 Este 9 Este 0 1007.6 -- 91
2020-07-25 08:00:00 23.7 3 Sudeste 6 Este 0 1007.2 -- 92
2020-07-25 07:00:00 23.7 0 Calma 8 Sudeste 0 1006.7 -- 94
2020-07-25 06:00:00 24.4 3 Este 9 Este 0 1006.6 -- 94
2020-07-25 05:00:00 24 3 Este 4 Este 0 1006.6 -- 89
2020-07-25 04:00:00 23.7 2 Sudoeste 6 Noroeste 0 1006.7 -- 89
2020-07-25 03:00:00 24.4 5 Oeste 7 Sudoeste 0 1006.9 -- 89
2020-07-25 02:00:00 24.8 3 Oeste 5 Noroeste 0 1007.2 -- 89
2020-07-25 01:00:00 25.4 3 Sudoeste 4 Sudoeste 0 1007.3 -- 89
2020-07-25 00:00:00 25.8 2 Sudeste 6 Sudeste 0 1007.1 -- 89
2020-07-24 23:00:00 25.8 5 Sudeste 9 Sudeste 0 1006.8 -- 86
2020-07-24 22:00:00 26.2 8 Sudeste 14 Sudeste 0 1006.2 -- 83
2020-07-24 21:00:00 27.3 8 Este 17 Sudeste 0 1005.9 -- 73
2020-07-24 20:00:00 28.8 11 Sudeste 18 Sudeste 0 1005.8 -- 68
2020-07-24 19:00:00 29.6 14 Sudeste 22 Sudeste 0 1005.8 -- 58
2020-07-24 18:00:00 30.3 15 Este 22 Sudeste 0 1006.1 -- 56
2020-07-24 17:00:00 30.9 13 Sudeste 24 Este 0 1006.1 -- 55
2020-07-24 16:00:00 30.5 14 Sudeste 24 Sudeste 0 1006.8 -- 55
2020-07-24 15:00:00 31.5 13 Sudeste 24 Este 0 1006.9 -- 50
2020-07-24 14:00:00 31.3 14 Este 21 Este 0 1007.2 -- 52
2020-07-24 13:00:00 31.3 11 Sudeste 18 Este 0 1007.5 -- 52
2020-07-24 12:00:00 30.6 10 Sudeste 18 Sudeste 0 1007.4 -- 53
2020-07-24 11:00:00 30.9 8 Sur 13 Sudoeste 0 1007.2 -- 53
2020-07-24 10:00:00 28.3 0 Calma 10 Oeste 0 1007.2 -- 61
2020-07-24 09:00:00 25 6 Oeste 10 Oeste 0 1007.3 -- 76
2020-07-24 08:00:00 23.3 6 Oeste 10 Oeste 0 1007.2 -- 83
2020-07-24 07:00:00 23.4 0 Calma 6 Oeste 0 1007.2 -- 85
2020-07-24 06:00:00 23.2 4 Sudoeste 9 Oeste 0 1007.3 -- 85
2020-07-24 05:00:00 23.3 7 Oeste 11 Oeste 0 1007.4 -- 82
2020-07-24 04:00:00 24.2 8 Oeste 11 Oeste 0 1007.6 -- 83
2020-07-24 03:00:00 24 4 Noroeste 7 Noroeste 0 1008.2 -- 91
2020-07-24 02:00:00 25.1 0 Calma 5 Sur 0 1008.8 -- 89
2020-07-24 01:00:00 25.3 3 Sur 6 Sur 0 1009 -- 86
2020-07-24 00:00:00 25.1 4 Sudeste 8 Sudeste 0 1008.9 -- 77
2020-07-23 23:00:00 25.1 6 Este 13 Sudeste 0 1008.7 -- 77
2020-07-23 22:00:00 25.8 8 Sudeste 14 Sudeste 0 1008.3 -- 76
2020-07-23 21:00:00 26.7 8 Sudeste 17 Sudeste 0 1007.9 -- 65
2020-07-23 20:00:00 28.2 12 Sudeste 19 Sudeste 0 1007.7 -- 58
2020-07-23 19:00:00 29.3 13 Sudeste 21 Sudeste 0 1007.8 -- 50
2020-07-23 18:00:00 29.7 14 Sudeste 23 Este 0 1008.2 -- 50
2020-07-23 17:00:00 29.3 14 Sudeste 24 Sudeste 0 1008.8 -- 59
2020-07-23 16:00:00 29.1 13 Sudeste 24 Sudeste 0 1009.4 -- 62
2020-07-23 15:00:00 29.6 15 Sudeste 27 Sudeste 0 1009.9 -- 59
2020-07-23 14:00:00 29.4 15 Sudeste 25 Sudeste 0 1010.3 -- 61
2020-07-23 13:00:00 28.4 15 Sudeste 26 Sudeste 0 1010.5 -- 64
2020-07-23 12:00:00 28.6 14 Sudeste 22 Sudeste 0 1010.3 -- 67
2020-07-23 11:00:00 28.2 8 Sudeste 15 Sudeste 0 1010 -- 65
2020-07-23 10:00:00 26.2 3 Sur 9 Noroeste 0 1010.2 -- 76
2020-07-23 09:00:00 23.9 5 Oeste 12 Noroeste 0 1010.2 -- 91
2020-07-23 08:00:00 22.9 8 Oeste 13 Noroeste 0 1010.1 -- 92
2020-07-23 07:00:00 23 7 Noroeste 12 Oeste 0 1009.9 -- 92
2020-07-23 06:00:00 23.2 5 Oeste 9 Noroeste 0 1010.1 -- 92
2020-07-23 05:00:00 23.4 4 Noroeste 8 Noroeste 0 1010.4 -- 92
2020-07-23 04:00:00 23.5 4 Oeste 7 Oeste 0 1010.8 -- 92
2020-07-23 03:00:00 23.7 3 Sudeste 15 Sudeste 0 1011.4 -- 92
2020-07-23 02:00:00 23.9 10 Sudeste 20 Sudeste 0 1011.6 -- 89
2020-07-23 01:00:00 24.2 10 Este 20 Este 0 1011.4 -- 88
2020-07-23 00:00:00 24.3 12 Este 21 Este 0 1010.6 -- 89
2020-07-22 23:00:00 24.7 8 Este 14 Sudeste 0 1009.9 -- 88
2020-07-22 22:00:00 25.3 8 Este 15 Sudeste 0 1009.2 -- 83
2020-07-22 21:00:00 26.6 9 Sudeste 16 Este 0 1008.7 -- 73
2020-07-22 20:00:00 27.7 11 Sudeste 21 Sudeste 0 1008.8 -- 70
2020-07-22 19:00:00 28.6 12 Sudeste 23 Sudeste 0 1008.9 -- 64
2020-07-22 18:00:00 29.2 15 Sudeste 23 Sudeste 0 1009.3 -- 59
2020-07-22 17:00:00 30 12 Sudeste 22 Sur 0 1009.7 -- 55
2020-07-22 16:00:00 30.7 13 Sudeste 24 Sudeste 0 1010.2 -- 55
2020-07-22 15:00:00 30.1 12 Sudeste 22 Sudeste 0 1010.6 -- 56
2020-07-22 14:00:00 29.1 11 Sudeste 19 Este 0 1011.2 -- 59
2020-07-22 13:00:00 28.4 10 Sudeste 21 Este 0 1011.4 -- 61
2020-07-22 12:00:00 28.4 6 Sudeste 17 Este 0 1011.3 -- 62
2020-07-22 11:00:00 27.8 9 Sur 14 Sur 0 1011.2 -- 64
2020-07-22 10:00:00 25.8 4 Oeste 9 Oeste 0 1011.6 -- 76
2020-07-22 09:00:00 24.3 5 Oeste 9 Oeste 0 1011.1 -- 86
2020-07-22 08:00:00 22.5 3 Noroeste 10 Noroeste 0 1010.5 -- 91
2020-07-22 07:00:00 22.6 5 Oeste 10 Oeste 0 1010 -- 89
2020-07-22 06:00:00 23.4 4 Oeste 10 Oeste 0 1010 -- 88
2020-07-22 05:00:00 23.9 2 Norte 5 Norte 0 1010 -- 86
2020-07-22 04:00:00 24.2 0 Calma 4 Oeste 0 1010.5 -- 86
2020-07-22 03:00:00 24.3 0 Calma 10 Sur 0 1010.5 -- 86
2020-07-22 02:00:00 24.5 3 Sur 10 Sur 0 1010.7 -- 86
2020-07-22 01:00:00 24.8 6 Sur 10 Sur 0 1010.7 -- 85
2020-07-22 00:00:00 25.3 5 Sur 13 Sur 0 1010.6 -- 82
2020-07-21 23:00:00 25.5 7 Sudeste 14 Sudeste 0 1010.1 -- 80
2020-07-21 22:00:00 25.7 9 Sudeste 19 Sur 0 1009.8 -- 79
2020-07-21 21:00:00 26.5 10 Sudeste 23 Sur 0 1009.6 -- 71
2020-07-21 20:00:00 27.8 12 Sur 23 Sur 0 1008.6 -- 65
2020-07-21 19:00:00 28.5 13 Sur 21 Sur 0 1008.2 -- 62
2020-07-21 18:00:00 29.6 8 Sur 21 Sur 0 1008.2 -- 59
2020-07-21 17:00:00 29.3 10 Sur 23 Sudeste 0 1008.8 -- 61
2020-07-21 16:00:00 29.6 15 Sur 29 Sur 0 1009 -- 61
2020-07-21 15:00:00 28.8 14 Sudeste 30 Este 0 1009.3 -- 64
2020-07-21 14:00:00 29.3 15 Sudeste 27 Sur 0 1009.1 -- 62
2020-07-21 13:00:00 28.7 17 Sudeste 30 Sudeste 0 1009.2 -- 61
2020-07-21 12:00:00 29.5 13 Sudeste 23 Sudeste 0 1009.1 -- 55
2020-07-21 11:00:00 29.4 9 Sudeste 17 Sudeste 0 1008.5 -- 56
2020-07-21 10:00:00 26.5 5 Sudeste 14 Sur 0 1007.9 -- 64
2020-07-21 09:00:00 26.9 0 Calma 11 Este 0 1007.9 -- 64
2020-07-21 08:00:00 25.3 5 Nordeste 15 Este 0 1007.9 -- 68
2020-07-21 07:00:00 25.2 0 Calma 11 Nordeste 0 1008.1 -- 67
2020-07-21 06:00:00 25.1 2 Norte 10 Noroeste 0 1007.4 -- 65
2020-07-21 05:00:00 25 0 Calma 6 Sudeste 0 1006.9 -- 71
2020-07-21 04:00:00 25.5 3 Oeste 26 Este 0 1007 -- 64
2020-07-21 03:00:00 27 17 Este 51 Este 0 1006.2 -- 53
2020-07-21 02:00:00 25.5 8 Sudeste 25 Este 0 1010.6 -- 74
2020-07-21 01:00:00 25.4 6 Sudeste 16 Sur 0 1010.5 -- 77
2020-07-21 00:00:00 25.4 5 Sudeste 17 Este 0 1009.2 -- 74
2020-07-20 23:00:00 25.5 7 Sudeste 13 Sudeste 0 1008.4 -- 73
2020-07-20 22:00:00 26.3 8 Sudeste 18 Sudeste 0 1007.8 -- 65
2020-07-20 21:00:00 27 8 Sudeste 17 Sudeste 0 1007.3 -- 62
2020-07-20 20:00:00 28.7 11 Sudeste 20 Sur 0 1006.9 -- 56
2020-07-20 19:00:00 28.8 10 Sudeste 23 Sudeste 0 1006.5 -- 58
2020-07-20 18:00:00 29 12 Sudeste 26 Sudeste 0 1007.2 -- 60
2020-07-20 17:00:00 29.2 15 Sudeste 27 Sudeste 0 1007.7 -- 58
2020-07-20 16:00:00 30.2 14 Sudeste 27 Sudeste 0 1008 -- 58
2020-07-20 15:00:00 29.5 17 Sudeste 28 Sudeste 0 1008.2 -- 59
2020-07-20 14:00:00 30.1 18 Sudeste 28 Sudeste 0 1008.5 -- 55
2020-07-20 13:00:00 31.6 13 Sudeste 21 Sudeste 0 1008.3 -- 50
2020-07-20 12:00:00 32.2 6 Sudeste -- -- -- 1007.9 -- 46
2020-07-20 11:00:00 30 6 Sudoeste 16 Oeste 0 1008 -- 52
2020-07-20 10:00:00 27.7 10 Sudoeste 14 Oeste 0 1008 -- 62
2020-07-20 09:00:00 24.8 4 Noroeste 9 Noroeste 0 1008.3 -- 79
2020-07-20 08:00:00 23 4 Oeste 13 Noroeste 0 1008.6 -- 92
2020-07-20 07:00:00 22.7 8 Oeste 12 Noroeste 0 1008.6 -- 91
2020-07-20 06:00:00 22.7 8 Oeste 11 Oeste 0 1008.6 -- 89
2020-07-20 05:00:00 23.4 4 Noroeste 6 Noroeste 0 1008.8 -- 91
2020-07-20 04:00:00 24 0 Calma 9 Sudeste 0 1009.1 -- 91
2020-07-20 03:00:00 24.3 6 Sudeste 12 Sudeste 0 1009.2 -- 91
2020-07-20 02:00:00 24.6 8 Sudeste 12 Este 0 1009.5 -- 89
2020-07-20 01:00:00 25 8 Sudeste 12 Sudeste 0 1009.2 -- 83
2020-07-20 00:00:00 24.4 5 Sudeste 9 Sudeste 0 1008.9 -- 74
2020-07-19 23:00:00 24.9 4 Sur 6 Sudeste 0 1008.4 -- 85
2020-07-19 22:00:00 25.1 4 Sudeste 14 Sudeste 0 1008 -- 83
2020-07-19 21:00:00 25.8 10 Sudeste 16 Sudeste 0 1007.8 -- 77
2020-07-19 20:00:00 26.5 10 Sudeste 19 Sudeste 0 1007.6 -- 76
2020-07-19 19:00:00 27.5 10 Sudeste 20 Sudeste 0 1007.8 -- 68
2020-07-19 18:00:00 28 14 Sudeste 26 Sudeste 0 1008.4 -- 62
2020-07-19 17:00:00 29.3 13 Sudeste 24 Sudeste 0 1008.7 -- 56
2020-07-19 16:00:00 29.5 13 Sudeste 23 Sudeste 0 1009.1 -- 56
2020-07-19 15:00:00 30 13 Sudeste 23 Sudeste 0 1009.6 -- 52
2020-07-19 14:00:00 29.4 13 Sudeste 23 Sudeste 0 1010.1 -- 56
2020-07-19 13:00:00 29.8 13 Sudeste 22 Sudeste 0 1010.1 -- 53
2020-07-19 12:00:00 29.2 10 Sudeste 22 Sudeste 0 1010.3 0.7 50
2020-07-19 11:00:00 28.4 8 Sudeste 15 Este 0 1010.1 0.5 50
2020-07-19 10:00:00 26.1 3 Sudoeste 11 Oeste 0 1010.2 0.6 72
2020-07-19 09:00:00 24.3 3 Oeste 9 Noroeste 0 1009.6 0.3 83
2020-07-19 08:00:00 22.8 5 Oeste 9 Noroeste 0 1009.6 -- 91
2020-07-19 07:00:00 22.4 5 Noroeste 10 Noroeste 0 1009.6 -- 92
2020-07-19 06:00:00 22.8 5 Noroeste 7 Oeste 0 1009.3 -- 92
2020-07-19 05:00:00 23.2 2 Oeste 6 Noroeste 0 1009.5 -- 92
2020-07-19 04:00:00 23.5 3 Sudoeste 9 Sur 0 1010 -- 92
2020-07-19 03:00:00 23.5 4 Sur 8 Sur 0 1010 -- 92
2020-07-19 02:00:00 23.7 5 Sur 8 Sur 0 1010.4 -- 91
2020-07-19 01:00:00 23.9 6 Sudeste 10 Sudeste 0 1010.4 -- 91
2020-07-19 00:00:00 24 6 Sudeste 10 Sudeste 0 1010.2 -- 89
2020-07-18 23:00:00 24.3 6 Sudeste 12 Sudeste 0 1009.8 -- 89
2020-07-18 22:00:00 24.5 8 Sudeste 15 Sur 0 1009 -- 86
2020-07-18 21:00:00 25.4 8 Sudeste 19 Sudeste 0 1008.4 -- 80
2020-07-18 20:00:00 26.6 12 Sudeste 21 Sudeste 0 1008.1 -- 74
2020-07-18 19:00:00 27.6 13 Sudeste 22 Sudeste 0 1008.1 -- 65
2020-07-18 18:00:00 28.7 12 Sudeste 23 Sudeste 0 1008.3 -- 61
2020-07-18 17:00:00 29.1 14 Sudeste 25 Sudeste 0 1008.8 -- 56
2020-07-18 16:00:00 30 14 Sudeste 23 Sudeste 0 1009.3 -- 55
2020-07-18 15:00:00 29.2 14 Sudeste 30 Sudeste 0 1009.7 -- 50
2020-07-18 14:00:00 29.7 14 Sudeste 25 Sudeste 0 1010 -- 50
2020-07-18 13:00:00 29.7 15 Sudeste 24 Sudeste 0 1010.1 -- 47
2020-07-18 12:00:00 29.4 13 Sur 24 Sur 0 1009.9 -- 48
2020-07-18 11:00:00 28.2 14 Sudeste 22 Sudeste 0 1009.7 -- 50
2020-07-18 10:00:00 26.5 3 Sur 9 Sudoeste 0 1009.8 -- 68
2020-07-18 09:00:00 24.1 5 Sudoeste 7 Sudoeste 0 1009.7 -- 82
2020-07-18 08:00:00 22.3 0 Calma 6 Sudoeste 0 1009.4 -- 86
2020-07-18 07:00:00 22.4 0 Calma 3 Nordeste 0 1009 -- 86
2020-07-18 06:00:00 22 0 Calma 6 Oeste 0 1008.7 -- 85
2020-07-18 05:00:00 22.8 0 Calma 4 Noroeste 0 1008.4 -- 83
2020-07-18 04:00:00 23.3 0 Calma 5 Nordeste 0 1008.5 -- 86
2020-07-18 03:00:00 23.4 4 Este 7 Este 0 1008.8 -- 86
2020-07-18 02:00:00 23.8 0 Calma 5 Nordeste 0 1009.2 -- 86
2020-07-18 01:00:00 23.8 3 Este 10 Sudeste 0 1009.5 -- 88
2020-07-18 00:00:00 23.9 6 Este 12 Sudeste 0 1009.5 -- 89
2020-07-17 23:00:00 24.3 8 Sudeste 14 Sudeste 0 1009 -- 88
2020-07-17 22:00:00 24.8 9 Sudeste 15 Sudeste 0 1008.1 -- 83
2020-07-17 21:00:00 25.9 10 Sudeste 17 Sudeste 0 1007.6 -- 70
2020-07-17 20:00:00 26.8 12 Sudeste 18 Sudeste 0 1007.6 -- 62
2020-07-17 19:00:00 27.9 12 Sudeste 22 Sudeste 0 1007.9 -- 55
2020-07-17 18:00:00 28.6 14 Sudeste 25 Sudeste 0 1008.3 -- 53
2020-07-17 17:00:00 29.7 13 Sudeste 23 Sur 0 1008.7 -- 49
2020-07-17 16:00:00 29.7 14 Sudeste 25 Sudeste 0 1009 -- 46
2020-07-17 15:00:00 30.4 13 Sudeste 23 Sur 0 1009.4 -- 44
2020-07-17 14:00:00 30.2 14 Sudeste 26 Sudeste 0 1009.8 -- 42
2020-07-17 13:00:00 30.4 10 Sudeste 23 Sur 0 1010 -- 43
2020-07-17 12:00:00 30.5 12 Sur 21 Sur 0 1010.1 -- 43
2020-07-17 11:00:00 29.8 11 Sudeste 20 Sudeste 0 1009.9 -- 43
2020-07-17 10:00:00 27.6 5 Sudoeste 10 Sur 0 1010.2 -- 55
2020-07-17 09:00:00 24.5 5 Noroeste 11 Noroeste 0 1010 -- 68
2020-07-17 08:00:00 21.4 5 Oeste 13 Oeste 0 1009.8 -- 82
2020-07-17 07:00:00 22.3 0 Calma 9 Oeste 0 1009.2 -- 82
2020-07-17 06:00:00 22 6 Oeste 10 Noroeste 0 1009.7 -- 80
2020-07-17 05:00:00 22.8 5 Oeste 13 Oeste 0 1009.4 -- 79
2020-07-17 04:00:00 23.2 4 Noroeste 9 Noroeste 0 1009.5 -- 77
2020-07-17 03:00:00 23.6 4 Noroeste 6 Norte 0 1010 -- 76
2020-07-17 02:00:00 24.1 0 Calma 7 Sudeste 0 1010.8 -- 74
2020-07-17 01:00:00 24.5 4 Este 11 Este 0 1011.2 -- 73
2020-07-17 00:00:00 24.6 5 Sudeste 10 Sudeste 0 1011.3 -- 73
2020-07-16 23:00:00 24.7 6 Sudeste 13 Sudeste 0 1011 -- 71
2020-07-16 22:00:00 25.3 6 Sudeste 15 Sudeste 0 1010.3 -- 67
2020-07-16 21:00:00 26.4 10 Sudeste 19 Sur 0 1009.7 -- 61
2020-07-16 20:00:00 27.7 11 Sur 19 Sur 0 1009 -- 53
2020-07-16 19:00:00 29.1 10 Sudeste 19 Sur 0 1009 -- 49
2020-07-16 18:00:00 29.8 11 Sudeste 23 Este 0 1009.2 -- 46
2020-07-16 17:00:00 30.6 13 Sudeste 25 Sudeste 0 1009.4 -- 43
2020-07-16 16:00:00 30.7 12 Sudeste 26 Sudeste 0 1009.7 -- 42
2020-07-16 15:00:00 30.9 11 Sudeste 25 Sudeste 0 1010 -- 41
2020-07-16 14:00:00 30.6 12 Sudeste 31 Este 0 1010.6 -- 41
2020-07-16 13:00:00 30 15 Sudeste 26 Sudeste 0 1010.9 -- 41
2020-07-16 12:00:00 30.4 12 Sudeste 23 Sudeste 0 1011 -- 41
2020-07-16 11:00:00 29.7 10 Sudeste 22 Sudeste 0 1011 -- 44
2020-07-16 10:00:00 27.9 5 Sur 10 Sudoeste 0 1010.9 -- 52
2020-07-16 09:00:00 25.3 5 Noroeste 11 Noroeste 0 1010.5 -- 64
2020-07-16 08:00:00 23.5 5 Noroeste 11 Norte 0 1010.3 -- 74
2020-07-16 07:00:00 22.6 3 Oeste 7 Noroeste 0 1010.2 -- 77
2020-07-16 06:00:00 23.3 4 Norte 9 Noroeste 0 1009.7 -- 77
2020-07-16 05:00:00 23.3 6 Noroeste 12 Noroeste 0 1009.9 -- 79
2020-07-16 04:00:00 23.7 6 Noroeste 11 Noroeste 0 1009.9 -- 77
2020-07-16 03:00:00 23.7 5 Noroeste 11 Noroeste 0 1010.3 -- 77
2020-07-16 02:00:00 23.9 4 Noroeste 10 Oeste 0 1010.5 -- 76
2020-07-16 01:00:00 24.3 2 Sudeste 8 Sudeste 0 1010.7 -- 73
2020-07-16 00:00:00 24.6 4 Sudeste 13 Sudeste 0 1010.7 -- 74
2020-07-15 23:00:00 24.6 6 Sudeste 13 Sudeste 0 1010.2 -- 74
2020-07-15 22:00:00 25 7 Sudeste 19 Sur 0 1009.2 -- 71
2020-07-15 21:00:00 25.7 12 Sur 18 Sur 0 1008.4 -- 65
2020-07-15 20:00:00 27.2 11 Sudeste 22 Sudeste 0 1007.9 -- 58
2020-07-15 19:00:00 28.7 10 Sudeste 23 Sudeste 0 1007.8 -- 52
2020-07-15 18:00:00 29.5 13 Sudeste 26 Sudeste 0 1008.1 -- 50
2020-07-15 17:00:00 29.3 13 Sudeste 26 Sudeste 0 1008.5 -- 50
2020-07-15 16:00:00 28.9 14 Sudeste 27 Sudeste 0 1009.1 -- 55
2020-07-15 15:00:00 29.2 14 Sudeste 27 Este 0 1009.8 -- 56
2020-07-15 14:00:00 28.8 13 Sudeste 27 Sudeste 0 1009.7 -- 56
2020-07-15 13:00:00 28.8 14 Sudeste 28 Sudeste 0 1009.6 -- 58
2020-07-15 12:00:00 28.6 13 Sudeste 23 Sudeste 0 1009.5 -- 58
2020-07-15 11:00:00 28.6 10 Sur 21 Sur 0 1009.1 -- 58
2020-07-15 10:00:00 27.2 3 Sudeste 11 Sudeste 0 1008.8 -- 68
2020-07-15 09:00:00 24.5 3 Oeste 6 Noroeste 0 1008.6 -- 88
2020-07-15 08:00:00 22.6 0 Calma 4 Noroeste 0 1008.5 -- 91
2020-07-15 07:00:00 21.9 3 Oeste 5 Oeste 0 1008.1 -- 91
2020-07-15 06:00:00 22.8 4 Oeste 6 Noroeste 0 1007.7 -- 91
2020-07-15 05:00:00 23.3 4 Noroeste 9 Oeste 0 1007.7 -- 91
2020-07-15 04:00:00 23.4 5 Oeste 8 Oeste 0 1008 -- 91
2020-07-15 03:00:00 23.7 3 Sudeste 11 Este 0 1008.4 -- 91
2020-07-15 02:00:00 24.1 6 Sudeste 16 Sudeste 0 1008.6 -- 89
2020-07-15 01:00:00 24.4 9 Sudeste 16 Sudeste 0 1009 -- 86
2020-07-15 00:00:00 24.6 8 Este 15 Sudeste 0 1008.7 -- 82
2020-07-14 23:00:00 24.3 9 Sudeste 13 Sudeste 0 1008 -- 80
2020-07-14 22:00:00 24.8 5 Sudeste 13 Sur 0 1007.3 -- 80
2020-07-14 21:00:00 25.4 7 Sudeste 19 Sudeste 0 1006.7 -- 79
2020-07-14 20:00:00 26 10 Sudeste 22 Sudeste 0 1006.8 -- 76
2020-07-14 19:00:00 26.3 16 Sudeste 29 Sudeste 0 1006.7 -- 76
2020-07-14 18:00:00 27.3 15 Sudeste 29 Este 0 1007 -- 71
2020-07-14 17:00:00 27.7 17 Sudeste 27 Este 0 1007.5 -- 67
2020-07-14 16:00:00 27.7 18 Sudeste 27 Sudeste 0 1007.9 -- 62
2020-07-14 15:00:00 29.3 13 Sudeste 24 Sudeste 0 1008.3 -- 55
2020-07-14 14:00:00 29.1 14 Sudeste 24 Sudeste 0 1009 -- 46
2020-07-14 13:00:00 29.8 13 Sudeste 26 Este 0 1009.1 -- 46
2020-07-14 12:00:00 30.1 15 Sudeste 24 Este 0 1009.1 -- 44
2020-07-14 11:00:00 30.2 6 Sudeste 15 Sudeste 0 1008.9 -- 45
2020-07-14 10:00:00 27.7 5 Sudoeste 9 Oeste 0 1009.4 -- 53
2020-07-14 09:00:00 25.1 5 Oeste 10 Oeste 0 1009.6 -- 61
2020-07-14 08:00:00 22.7 8 Oeste 12 Oeste 0 1009.8 -- 65
2020-07-14 07:00:00 23 5 Oeste 13 Noroeste 0 1009.9 -- 64
2020-07-14 06:00:00 22.7 6 Oeste 10 Noroeste 0 1009.9 -- 65
2020-07-14 05:00:00 23 6 Noroeste 8 Noroeste 0 1010.1 -- 65
2020-07-14 04:00:00 23.3 0 Calma 6 Noroeste 0 1010.4 -- 64
2020-07-14 03:00:00 23.9 0 Calma 6 Noroeste 0 1010.9 -- 62
2020-07-14 02:00:00 24.4 0 Calma 7 Nordeste 0 1011.1 -- 59
2020-07-14 01:00:00 24.9 2 Norte 8 Norte 0 1011.5 -- 59
2020-07-14 00:00:00 25.1 0 Calma 8 Sudeste 0 1011.5 -- 58
2020-07-13 23:00:00 25.5 6 Sudeste 10 Sudeste 0 1011.2 -- 56
2020-07-13 22:00:00 26 8 Sudeste 15 Sur 0 1010.6 1 53
2020-07-13 21:00:00 27 11 Sur 18 Sur 0 1010.1 0.2 48
2020-07-13 20:00:00 28.6 11 Sur 22 Sudeste 0 1009.8 -0.5 44
2020-07-13 19:00:00 29.6 14 Sur 24 Sur 0 1009.6 -0.9 41
2020-07-13 18:00:00 30.4 14 Sur 25 Sudeste 0 1009.9 -0.7 38
2020-07-13 17:00:00 30.8 17 Sur 28 Sur 0 1010.3 -0.5 38
2020-07-13 16:00:00 31.1 17 Sur 30 Sur 0 1010.5 -0.4 38
2020-07-13 15:00:00 31.9 17 Sudeste 26 Sudeste 0 1010.6 -0.4 39
2020-07-13 14:00:00 32 16 Sur 23 Sur 0 1010.8 -0.2 37
2020-07-13 13:00:00 32.1 12 Sur 21 Sur 0 1010.9 -0.4 36
2020-07-13 12:00:00 31.8 8 Sur 16 Sur 0 1011 -0.2 38
2020-07-13 11:00:00 29.3 4 Oeste 13 Oeste 0 1011 -0.1 46
2020-07-13 10:00:00 28.1 6 Oeste 10 Oeste 0 1011.3 0.5 53
2020-07-13 09:00:00 25.1 6 Oeste 10 Oeste 0 1011.2 0.6 79
2020-07-13 08:00:00 23.3 5 Oeste 10 Oeste 0 1011.1 0.5 88
2020-07-13 07:00:00 22.5 4 Noroeste 8 Noroeste 0 1010.8 -- 89
2020-07-13 06:00:00 22.9 3 Oeste 6 Noroeste 0 1010.6 -1.1 89
2020-07-13 05:00:00 23.1 4 Oeste 9 Oeste 0 1010.6 -1.8 88
2020-07-13 04:00:00 24.2 4 Oeste 8 Oeste 0 1011 -1.3 85
2020-07-13 03:00:00 24.6 5 Oeste 7 Sur 0 1011.7 -0.4 83
2020-07-13 02:00:00 24.9 5 Sur 11 Sudeste 0 1012.4 1 82
2020-07-13 01:00:00 24.9 5 Sudeste 11 Sudeste 0 1012.3 2 82
2020-07-13 00:00:00 24.7 9 Sudeste 15 Sudeste 0 1012.1 2.8 82
2020-07-12 23:00:00 24.8 11 Sudeste 21 Este 0 1011.4 3 82
2020-07-12 22:00:00 25 10 Este 18 Este 0 1010.3 2.1 80
2020-07-12 21:00:00 25.7 11 Este 18 Sudeste 0 1009.3 0.8 74
2020-07-12 20:00:00 26.9 13 Sudeste 23 Sudeste 0 1008.4 -0.4 68
2020-07-12 19:00:00 27.6 12 Sudeste 22 Sudeste 0 1008.2 -1.4 65
2020-07-12 18:00:00 28.8 10 Sudeste 22 Sudeste 0 1008.5 -1.6 62
2020-07-12 17:00:00 29.4 11 Sudeste 24 Este 0 1008.8 -1.2 59
2020-07-12 16:00:00 28.9 10 Sudeste 25 Sudeste 0 1009.6 -0.7 64
2020-07-12 15:00:00 29.1 15 Sudeste 30 Sudeste 0 1010.1 -- 64
2020-07-12 14:00:00 27.8 13 Sudeste 30 Sudeste 0 1010 -0.4 68
2020-07-12 13:00:00 27.9 15 Sudeste 36 Sudeste 0 1010.3 -- 68
2020-07-12 12:00:00 27 13 Sudeste 27 Sudeste 0 1010.3 -- 68
2020-07-12 11:00:00 27.5 11 Sudeste 19 Sudeste 0 1010.4 -- 62
2020-07-12 10:00:00 26.9 7 Sudeste 14 Sudeste 0 1009.9 0.9 68
2020-07-12 09:00:00 25.4 4 Sudeste 12 Sudeste 0 1009.7 -- 77
2020-07-12 08:00:00 23.8 5 Sudeste 13 Sudeste 0 1009.8 -- 87
2020-07-12 07:00:00 23.3 0 Calma 7 Sudoeste 0 1009 -- 91
2020-07-12 06:00:00 23.6 5 Oeste 10 Oeste 0 1008.6 -- 89
2020-07-12 05:00:00 24.1 0 Calma 10 Sur 0 1008.5 -- 89
2020-07-12 04:00:00 24.5 4 Sudeste 16 Sudeste 0 1009.6 -- 88
2020-07-12 03:00:00 24.8 7 Sudeste 15 Sur 0 1009.3 -- 86
2020-07-12 02:00:00 25 12 Sudeste 28 Este 0 1009.8 -- 83
2020-07-12 01:00:00 25.5 12 Este 31 Este 0 1009.4 -- 77
2020-07-12 00:00:00 25.6 7 Sudoeste 15 Sudoeste 0 1011.1 -- 77
2020-07-11 23:00:00 25.5 4 Sudeste 12 Sudeste 0 1009.8 -- 79
2020-07-11 22:00:00 25.4 6 Sudeste 22 Este 0 1009.2 -- 80
2020-07-11 21:00:00 25.8 12 Este 23 Sudeste 0 1008 -- 77
2020-07-11 20:00:00 26.7 9 Sudeste 18 Sudeste 0 1008.4 -- 79
2020-07-11 19:00:00 26.9 11 Sudeste 27 Sudeste 0 1008.4 -0.6 77
2020-07-11 18:00:00 27.5 14 Sudeste 27 Sudeste 0 1008.6 -- 74
2020-07-11 17:00:00 27.4 15 Sudeste 31 Sudeste 0 1008.9 -- 74
2020-07-11 16:00:00 28.1 16 Sudeste 28 Sudeste 0 1009 -- 71
2020-07-11 15:00:00 28.5 16 Sudeste 30 Sudeste 0 1009.5 -- 68
2020-07-11 14:00:00 28.1 17 Sudeste 28 Sudeste 0 1009.8 -- 70
2020-07-11 13:00:00 28.3 13 Sudeste 25 Sudeste 0 1009.6 -- 70
2020-07-11 12:00:00 26.4 11 Sudeste 18 Sudeste 0 1009.6 -- 80
2020-07-11 11:00:00 26.5 12 Sudeste 18 Sudeste 0 1009.2 -- 76
2020-07-11 10:00:00 25.5 9 Sudeste 18 Este 0 1009.2 -- 68
2020-07-11 09:00:00 24 0 Calma 6 Oeste 0 1008.5 -- 67
2020-07-11 08:00:00 21.3 4 Sudoeste 6 Oeste 0 1008.2 -- 74
2020-07-11 07:00:00 21.4 0 Calma 6 Noroeste 0 1007.8 -- 76
2020-07-11 06:00:00 21.7 2 Noroeste 6 Noroeste 0 1007.6 -- 76
2020-07-11 05:00:00 22.2 3 Noroeste 4 Noroeste 0 1007.4 -- 76
2020-07-11 04:00:00 22.2 0 Calma 4 Oeste 0 1007.5 -- 74
2020-07-11 03:00:00 22.5 3 Oeste 5 Oeste 0 1007.6 -- 74
2020-07-11 02:00:00 23.2 2 Oeste 5 Oeste 0 1007.8 0.4 79
2020-07-11 01:00:00 23.8 2 Sudoeste 4 Sudoeste 0 1008 -- 76
2020-07-11 00:00:00 24 0 Calma 8 Sudeste 0 1007.5 -- 76
2020-07-10 23:00:00 24.2 4 Sudeste 11 Este 0 1007.4 -- 77
2020-07-10 22:00:00 24.4 7 Sudeste 14 Sudeste 0 1006.7 -- 76
2020-07-10 21:00:00 25.6 8 Este 16 Sudeste 0 1006.3 -- 67
2020-07-10 20:00:00 27.2 10 Sudeste 18 Sudeste 0 1006 -- 61
2020-07-10 19:00:00 28.1 10 Sudeste 21 Sudeste 0 1005.9 -- 56
2020-07-10 18:00:00 28.2 12 Sudeste 22 Sudeste 0 1006.2 -- 55
2020-07-10 17:00:00 28.4 14 Sudeste 23 Sudeste 0 1006.6 -- 53
2020-07-10 16:00:00 28.7 13 Este 22 Este 0 1007.1 -- 50
2020-07-10 15:00:00 28.5 14 Sudeste 24 Sudeste 0 1007.7 -- 44
2020-07-10 14:00:00 28.5 15 Sudeste 24 Sudeste 0 1008 0 46
2020-07-10 13:00:00 29.1 12 Sudeste 18 Sudeste 0 1008 -- 44
2020-07-10 12:00:00 29 8 Sudeste 17 Este 0 1008.1 -- 44
2020-07-10 11:00:00 28 8 Sudeste 14 Sur 0 1008 -0.4 49
2020-07-10 10:00:00 25.9 2 Sudeste 9 Sudeste 0 1008.5 -- 61
2020-07-10 09:00:00 24 4 Sudeste 9 Sudeste 0 1008.5 -- 71
2020-07-10 08:00:00 21 0 Calma 8 Noroeste 0 1008.4 -- 79
2020-07-10 07:00:00 21.6 7 Noroeste 12 Noroeste 0 1007.7 -- 73
2020-07-10 06:00:00 21.2 5 Noroeste 11 Noroeste 0 1007.8 -- 79
2020-07-10 05:00:00 21.5 6 Noroeste 10 Norte 0 1008.3 -- 88
2020-07-10 04:00:00 21.6 5 Oeste 10 Oeste 0 1008.8 -- 91
2020-07-10 03:00:00 21.5 6 Oeste 9 Oeste 0 1009.2 -- 91
2020-07-10 02:00:00 22.1 0 Calma 10 Este 0 1009.4 -- 91
2020-07-10 01:00:00 22.3 6 Sudeste 10 Sudeste 0 1009.4 -- 89
2020-07-10 00:00:00 22.5 6 Sur 10 Sur 0 1009 -- 86
2020-07-09 23:00:00 23.1 4 Sur 9 Sudeste 0 1008.4 -- 85
2020-07-09 22:00:00 23.7 7 Este 13 Sudeste 0 1007.9 -- 77
2020-07-09 21:00:00 24.8 9 Sudeste 17 Sudeste 0 1007.5 -- 71
2020-07-09 20:00:00 25.9 13 Sudeste 21 Sudeste 0 1007.4 -- 64
2020-07-09 19:00:00 26.6 14 Sudeste 22 Sudeste 0 1007.3 -- 61
2020-07-09 18:00:00 27.9 14 Sudeste 23 Sudeste 0 1007.5 -- 58
2020-07-09 17:00:00 28.2 15 Sudeste 23 Sudeste 0 1007.8 -- 55
2020-07-09 16:00:00 29 14 Sudeste 25 Sudeste 0 1008.2 -- 52
2020-07-09 15:00:00 29.8 10 Sudeste 26 Sudeste 0 1008.5 -- 50
2020-07-09 14:00:00 29.6 14 Sudeste 25 Este 0 1009.1 -- 50
2020-07-09 13:00:00 29.6 13 Sudeste 22 Sudeste 0 1009.1 -- 50
2020-07-09 12:00:00 30.1 10 Sudeste 17 Sudeste 0 1009.1 -- 52
2020-07-09 11:00:00 29.3 8 Sudeste 14 Este 0 1009 -- 53
2020-07-09 10:00:00 27.8 5 Sur 9 Sur 0 1009.1 -- 56
2020-07-09 09:00:00 24.1 0 Calma 9 Oeste 0 1008.8 -- 65
2020-07-09 08:00:00 23.2 5 Norte 10 Norte 0 1008.9 -- 67
2020-07-09 07:00:00 22.2 4 Oeste 12 Oeste 0 1008.5 -- 73
2020-07-09 06:00:00 22.6 10 Oeste 17 Oeste 0 1008.6 -- 73
2020-07-09 05:00:00 21.9 10 Oeste 14 Sudoeste 0 1008.6 -- 73
2020-07-09 04:00:00 23.6 3 Noroeste 9 Norte 0 1008.9 -- 70
2020-07-09 03:00:00 24 3 Noroeste 8 Noroeste 0 1009.5 -- 68
2020-07-09 02:00:00 24.2 2 Norte 5 Norte 0 1009.7 -- 68
2020-07-09 01:00:00 24.6 4 Nordeste 6 Nordeste 0 1010 -- 67
2020-07-09 00:00:00 25.1 3 Sudeste 9 Sudeste 0 1009.7 -- 62
2020-07-08 23:00:00 25.7 5 Sur 14 Sur 0 1009.1 -- 59
2020-07-08 22:00:00 26.6 8 Sudeste 17 Sur 0 1007.9 -- 53
2020-07-08 21:00:00 28.8 9 Sudeste 18 Sudeste 0 1007.1 -- 44
2020-07-08 20:00:00 30 10 Sur 19 Sur 0 1006.6 -- 41
2020-07-08 19:00:00 30.8 9 Sur 18 Sur 0 1006.5 -- 38
2020-07-08 18:00:00 31.4 10 Sur 17 Sudeste 0 1006.6 -- 38
2020-07-08 17:00:00 31.4 6 Sudeste 15 Sudeste 0 1007.4 -- 38
2020-07-08 16:00:00 31.8 8 Sudeste 20 Sudeste 0 1007.6 -- 38
2020-07-08 15:00:00 31.9 11 Sudeste 22 Sudeste 0 1007.8 -- 38
2020-07-08 14:00:00 31.7 11 Sudeste 24 Sudeste 0 1007.7 -- 36
2020-07-08 13:00:00 30.9 15 Sudeste 28 Sudeste 0 1008.1 -- 36
2020-07-08 12:00:00 31.5 7 Sudeste 15 Sudeste 0 1007.7 -- 38
2020-07-08 11:00:00 30.2 7 Sur 13 Sur 0 1008 -- 38
2020-07-08 10:00:00 28 4 Oeste 12 Oeste 0 1007.7 -- 43
2020-07-08 09:00:00 25.5 6 Oeste 12 Oeste 0 1007.5 -- 52
2020-07-08 08:00:00 23.4 4 Oeste 10 Oeste 0 1007.8 -- 59
2020-07-08 07:00:00 23.5 3 Noroeste 8 Este 0 1007 -- 58
2020-07-08 06:00:00 24.2 4 Este 24 Oeste 0 1007 -- 56
2020-07-08 05:00:00 25.2 4 Nordeste 30 Oeste 0 1007 -- 52
2020-07-08 04:00:00 23.9 4 Sudeste 16 Sudeste 0 1007.2 -- 73
2020-07-08 03:00:00 25.6 10 Sudoeste 46 Sudoeste 0 1006.9 -- 59
2020-07-08 02:00:00 23.5 9 Oeste 13 Oeste 0 1008.5 -- 79
2020-07-08 01:00:00 24.8 4 Oeste 6 Oeste 0 1008.2 -- 76
2020-07-08 00:00:00 25.1 3 Sudeste 9 Sudeste 0 1008.2 -- 76